createdAt,value
2023-05-19T00:00:15.572Z,2.20
2023-05-19T00:02:45.666Z,2.80
2023-05-19T00:05:18.741Z,2.35
2023-05-19T00:07:47.772Z,2.22
2023-05-19T00:10:20.032Z,2.40
2023-05-19T00:12:49.337Z,2.45
2023-05-19T00:15:18.897Z,1.92
2023-05-19T00:17:47.833Z,2.80
2023-05-19T00:20:16.829Z,2.10
2023-05-19T00:22:45.459Z,2.28
2023-05-19T00:25:14.578Z,2.15
2023-05-19T00:27:45.054Z,1.95
2023-05-19T00:30:15.245Z,2.40
2023-05-19T00:32:44.441Z,2.13
2023-05-19T00:35:13.688Z,2.00
2023-05-19T00:37:42.277Z,2.20
2023-05-19T00:40:12.038Z,1.88
2023-05-19T00:42:41.586Z,1.90
2023-05-19T00:45:12.296Z,1.97
2023-05-19T00:47:41.320Z,2.70
2023-05-19T00:50:11.108Z,1.95
2023-05-19T00:52:39.705Z,1.92
2023-05-19T00:55:09.978Z,1.90
2023-05-19T00:57:39.949Z,1.80
2023-05-19T01:00:10.137Z,1.73
2023-05-19T01:02:40.959Z,2.05
2023-05-19T01:05:10.966Z,2.13
2023-05-19T01:07:39.650Z,2.07
2023-05-19T01:10:09.037Z,1.67
2023-05-19T01:12:38.321Z,1.70
2023-05-19T01:15:10.064Z,1.80
2023-05-19T01:17:45.948Z,2.13
2023-05-19T01:20:19.213Z,1.67
2023-05-19T01:23:25.490Z,1.70
2023-05-19T01:26:13.913Z,2.05
2023-05-19T01:29:14.165Z,1.80
2023-05-19T01:31:47.319Z,1.80
2023-05-19T01:34:18.197Z,1.95
2023-05-19T01:36:49.978Z,1.70
2023-05-19T01:39:19.119Z,2.08
2023-05-19T01:41:48.335Z,1.90
2023-05-19T01:44:17.673Z,2.58
2023-05-19T01:46:47.803Z,2.00
2023-05-19T01:49:16.738Z,1.92
2023-05-19T01:51:47.030Z,2.28
2023-05-19T01:54:16.012Z,2.08
2023-05-19T01:56:50.972Z,2.08
2023-05-19T01:59:32.976Z,1.85
2023-05-19T02:02:06.319Z,1.95
2023-05-19T02:04:40.268Z,2.10
2023-05-19T02:07:15.776Z,2.38
2023-05-19T02:09:53.740Z,2.10
2023-05-19T02:12:27.488Z,2.30
2023-05-19T02:15:03.401Z,2.20
2023-05-19T02:17:36.312Z,2.70
2023-05-19T02:20:06.081Z,2.17
2023-05-19T02:22:34.809Z,2.15
2023-05-19T02:25:03.787Z,1.90
2023-05-19T02:27:35.160Z,2.40
2023-05-19T02:30:05.002Z,2.13
2023-05-19T02:32:35.733Z,2.45
2023-05-19T02:35:05.042Z,2.58
2023-05-19T02:37:33.567Z,3.03
2023-05-19T02:40:02.733Z,2.30
2023-05-19T02:42:32.127Z,2.78
2023-05-19T02:45:01.856Z,2.88
2023-05-19T02:47:31.031Z,3.03
2023-05-19T02:50:01.450Z,2.67
2023-05-19T02:52:31.737Z,2.83
2023-05-19T02:55:00.886Z,3.08
2023-05-19T02:57:31.868Z,3.70
2023-05-19T03:00:01.144Z,3.25
2023-05-19T03:02:30.247Z,3.10
2023-05-19T03:05:01.711Z,3.53
2023-05-19T03:07:30.356Z,3.47
2023-05-19T03:09:59.215Z,3.53
2023-05-19T03:12:31.741Z,3.22
2023-05-19T03:15:00.935Z,3.53
2023-05-19T03:17:33.952Z,3.63
2023-05-19T03:20:06.209Z,3.50
2023-05-19T03:22:34.961Z,4.03
2023-05-19T03:25:04.725Z,3.47
2023-05-19T03:27:34.644Z,3.72
2023-05-19T03:30:06.336Z,4.43
2023-05-19T03:32:38.052Z,3.83
2023-05-19T03:35:09.584Z,3.80
2023-05-19T03:37:38.326Z,4.47
2023-05-19T03:40:09.071Z,3.65
2023-05-19T03:42:39.877Z,4.00
2023-05-19T03:45:09.762Z,4.10
2023-05-19T03:47:38.711Z,3.97
2023-05-19T03:50:44.713Z,4.20
2023-05-19T03:53:27.814Z,3.92
2023-05-19T03:55:56.863Z,4.20
2023-05-19T03:58:26.912Z,4.60
2023-05-19T04:00:56.136Z,4.60
2023-05-19T04:03:26.276Z,4.25
2023-05-19T04:05:56.839Z,4.10
2023-05-19T04:08:26.213Z,3.88
2023-05-19T04:10:54.718Z,3.50
2023-05-19T04:13:23.789Z,4.55
2023-05-19T04:15:53.925Z,3.67
2023-05-19T04:18:23.137Z,4.05
2023-05-19T04:20:52.249Z,4.47
2023-05-19T04:23:23.109Z,4.10
2023-05-19T04:25:52.268Z,4.45
2023-05-19T04:28:21.668Z,4.60
2023-05-19T04:30:50.757Z,4.10
2023-05-19T04:33:20.225Z,4.25
2023-05-19T04:35:50.407Z,5.32
2023-05-19T04:38:22.273Z,4.03
2023-05-19T04:40:52.142Z,3.78
2023-05-19T04:43:22.386Z,3.67
2023-05-19T04:45:52.543Z,3.58
2023-05-19T04:48:23.392Z,2.85
2023-05-19T04:50:53.297Z,3.13
2023-05-19T04:53:25.745Z,3.70
2023-05-19T04:55:54.717Z,3.38
2023-05-19T04:58:25.911Z,3.38
2023-05-19T05:00:56.589Z,3.22
2023-05-19T05:05:54.621Z,3.10
2023-05-19T05:08:25.010Z,3.42
2023-05-19T05:10:56.428Z,3.30
2023-05-19T05:13:26.519Z,3.10
2023-05-19T05:15:56.446Z,3.00
2023-05-19T05:18:26.395Z,3.40
2023-05-19T05:20:55.880Z,3.03
2023-05-19T05:23:27.967Z,3.38
2023-05-19T05:25:57.112Z,3.63
2023-05-19T05:28:26.098Z,3.40
2023-05-19T05:30:57.475Z,3.92
2023-05-19T05:33:28.027Z,3.58
2023-05-19T05:35:56.996Z,4.07
2023-05-19T05:38:28.785Z,3.45
2023-05-19T05:40:57.471Z,3.20
2023-05-19T05:43:26.643Z,3.05
2023-05-19T05:46:00.388Z,4.10
2023-05-19T05:48:29.958Z,3.92
2023-05-19T05:51:00.159Z,3.85
2023-05-19T05:53:38.838Z,3.35
2023-05-19T05:56:08.737Z,3.80
2023-05-19T05:58:44.709Z,3.40
2023-05-19T06:01:13.878Z,2.80
2023-05-19T06:03:45.107Z,3.20
2023-05-19T06:06:19.256Z,3.28
2023-05-19T06:08:49.892Z,3.40
2023-05-19T06:11:21.226Z,2.40
2023-05-19T06:16:37.506Z,2.72
2023-05-19T06:19:08.021Z,2.47
2023-05-19T06:21:38.441Z,4.10
2023-05-19T06:26:37.888Z,2.60
2023-05-19T06:29:07.088Z,2.97
2023-05-19T06:31:36.440Z,3.08
2023-05-19T06:34:17.741Z,2.50
2023-05-19T06:36:48.818Z,2.75
2023-05-19T06:39:20.426Z,2.90
2023-05-19T06:41:50.840Z,2.80
2023-05-19T06:44:39.889Z,3.08
2023-05-19T06:47:13.259Z,3.63
2023-05-19T06:49:42.036Z,3.15
2023-05-19T06:52:11.141Z,3.10
2023-05-19T06:54:41.585Z,3.03
2023-05-19T06:57:12.972Z,2.90
2023-05-19T06:59:43.621Z,3.28
2023-05-19T07:02:13.710Z,3.38
2023-05-19T07:04:43.120Z,3.10
2023-05-19T07:07:14.260Z,2.40
2023-05-19T07:09:46.013Z,2.75
2023-05-19T07:12:15.491Z,3.33
2023-05-19T07:14:44.455Z,3.70
2023-05-19T07:17:16.221Z,3.15
2023-05-19T07:19:46.671Z,2.75
2023-05-19T07:22:17.335Z,2.53
2023-05-19T07:24:48.158Z,3.15
2023-05-19T07:27:17.820Z,3.22
2023-05-19T07:29:46.823Z,3.30
2023-05-19T07:32:16.402Z,3.38
2023-05-19T07:34:45.083Z,3.33
2023-05-19T07:37:14.420Z,4.22
2023-05-19T07:39:43.429Z,3.40
2023-05-19T07:42:13.785Z,3.80
2023-05-19T07:44:42.613Z,3.75
2023-05-19T07:47:11.666Z,3.33
2023-05-19T07:49:40.206Z,3.67
2023-05-19T07:52:09.177Z,3.58
2023-05-19T07:54:38.874Z,3.65
2023-05-19T07:57:10.481Z,4.07
2023-05-19T07:59:40.920Z,3.63
2023-05-19T08:02:09.990Z,3.28
2023-05-19T08:04:38.679Z,4.18
2023-05-19T08:07:07.783Z,3.80
2023-05-19T08:09:36.784Z,3.45
2023-05-19T08:12:06.192Z,3.97
2023-05-19T08:14:35.216Z,3.58
2023-05-19T08:17:06.354Z,4.00
2023-05-19T08:22:04.398Z,3.72
2023-05-19T08:24:33.977Z,4.75
2023-05-19T08:27:04.933Z,4.68
2023-05-19T08:29:34.339Z,5.28
2023-05-19T08:32:03.724Z,5.22
2023-05-19T08:34:33.767Z,5.97
2023-05-19T08:39:34.280Z,4.40
2023-05-19T08:42:03.410Z,5.18
2023-05-19T08:44:32.843Z,5.13
2023-05-19T08:47:05.184Z,4.82
2023-05-19T08:49:39.181Z,4.97
2023-05-19T08:52:13.774Z,4.70
2023-05-19T08:54:45.173Z,4.22
2023-05-19T08:57:15.216Z,4.40
2023-05-19T08:59:44.982Z,5.90
2023-05-19T09:02:14.695Z,5.45
2023-05-19T09:04:47.866Z,5.00
2023-05-19T09:07:17.063Z,6.05
2023-05-19T09:09:45.996Z,4.63
2023-05-19T09:12:15.634Z,4.80
2023-05-19T09:14:44.749Z,4.57
2023-05-19T09:17:13.747Z,5.50
2023-05-19T09:19:47.339Z,5.45
2023-05-19T09:22:19.299Z,4.30
2023-05-19T09:24:48.892Z,5.57
2023-05-19T09:27:23.720Z,5.43
2023-05-19T09:29:52.815Z,5.20
2023-05-19T09:32:28.849Z,5.70
2023-05-19T09:34:58.961Z,5.55
2023-05-19T09:39:58.359Z,5.03
2023-05-19T09:42:30.220Z,5.15
2023-05-19T09:45:02.589Z,5.47
2023-05-19T09:47:35.582Z,6.43
2023-05-19T09:50:06.687Z,5.80
2023-05-19T09:52:37.388Z,5.90
2023-05-19T09:55:07.387Z,5.50
2023-05-19T09:57:38.329Z,5.22
2023-05-19T10:00:15.724Z,6.18
2023-05-19T10:02:45.790Z,5.47
2023-05-19T10:05:20.082Z,5.88
2023-05-19T10:07:51.606Z,5.55
2023-05-19T10:10:21.366Z,6.53
2023-05-19T10:12:50.993Z,5.65
2023-05-19T10:15:22.210Z,6.50
2023-05-19T10:17:53.022Z,7.07
2023-05-19T10:20:24.437Z,6.60
2023-05-19T10:22:53.332Z,5.88
2023-05-19T10:25:22.398Z,7.50
2023-05-19T10:27:54.848Z,6.82
2023-05-19T10:30:27.874Z,6.78
2023-05-19T10:32:58.270Z,5.75
2023-05-19T10:38:14.517Z,6.50
2023-05-19T10:40:51.266Z,6.85
2023-05-19T10:43:27.143Z,6.80
2023-05-19T10:45:56.790Z,6.65
2023-05-19T10:48:25.976Z,6.55
2023-05-19T10:50:56.420Z,6.93
2023-05-19T10:53:32.839Z,6.47
2023-05-19T10:56:04.397Z,6.70
2023-05-19T10:58:52.301Z,7.28
2023-05-19T11:01:24.969Z,6.65
2023-05-19T11:03:57.312Z,7.47
2023-05-19T11:06:29.525Z,6.70
2023-05-19T11:09:02.083Z,7.32
2023-05-19T11:11:46.214Z,6.88
2023-05-19T11:14:16.808Z,6.80
2023-05-19T11:16:48.429Z,6.63
2023-05-19T11:19:21.831Z,7.05
2023-05-19T11:21:55.065Z,6.68
2023-05-19T11:24:37.721Z,6.70
2023-05-19T11:27:31.836Z,7.20
2023-05-19T11:30:02.115Z,7.03
2023-05-19T11:35:00.982Z,6.65
2023-05-19T11:37:34.728Z,6.13
2023-05-19T11:40:06.191Z,7.05
2023-05-19T11:42:36.230Z,6.70
2023-05-19T11:45:06.576Z,5.78
2023-05-19T11:47:47.054Z,7.32
2023-05-19T11:50:25.183Z,7.63
2023-05-19T11:52:55.485Z,6.57
2023-05-19T11:55:25.430Z,5.72
2023-05-19T12:00:34.398Z,6.80
2023-05-19T12:03:06.072Z,6.00
2023-05-19T12:05:41.851Z,6.65
2023-05-19T12:08:14.199Z,6.70
2023-05-19T12:10:42.888Z,7.72
2023-05-19T12:13:11.939Z,7.45
2023-05-19T12:15:41.749Z,6.97
2023-05-19T12:18:10.891Z,6.20
2023-05-19T12:20:40.067Z,7.30
2023-05-19T12:23:09.167Z,6.88
2023-05-19T12:25:39.561Z,6.07
2023-05-19T12:28:08.661Z,7.32
2023-05-19T12:30:38.017Z,6.22
2023-05-19T12:33:07.342Z,6.47
2023-05-19T12:35:39.073Z,5.78
2023-05-19T12:38:08.737Z,6.53
2023-05-19T12:40:39.616Z,5.93
2023-05-19T12:43:09.831Z,6.30
2023-05-19T12:48:13.092Z,7.22
2023-05-19T12:50:42.365Z,6.88
2023-05-19T12:53:13.039Z,6.03
2023-05-19T12:55:44.110Z,5.80
2023-05-19T12:58:13.957Z,5.68
2023-05-19T13:00:47.500Z,6.30
2023-05-19T13:03:18.592Z,5.90
2023-05-19T13:05:49.956Z,6.20
2023-05-19T13:08:20.408Z,6.18
2023-05-19T13:10:50.969Z,6.18
2023-05-19T13:13:20.197Z,6.03
2023-05-19T13:15:49.872Z,5.70
2023-05-19T13:18:19.332Z,5.85
2023-05-19T13:20:50.284Z,6.50
2023-05-19T13:23:19.440Z,5.88
2023-05-19T13:25:48.161Z,6.63
2023-05-19T13:28:18.589Z,5.85
2023-05-19T13:30:48.345Z,5.30
2023-05-19T13:33:17.617Z,6.72
2023-05-19T13:35:46.759Z,6.63
2023-05-19T13:38:15.738Z,6.28
2023-05-19T13:40:44.466Z,6.40
2023-05-19T13:43:13.632Z,6.80
2023-05-19T13:45:45.822Z,6.40
2023-05-19T13:48:15.279Z,5.95
2023-05-19T13:50:44.307Z,6.68
2023-05-19T13:53:13.332Z,6.05
2023-05-19T13:55:42.014Z,6.60
2023-05-19T13:58:12.624Z,6.57
2023-05-19T14:00:42.671Z,5.68
2023-05-19T14:03:13.583Z,6.45
2023-05-19T14:05:42.663Z,6.78
2023-05-19T14:08:12.394Z,6.45
2023-05-19T14:10:42.301Z,6.85
2023-05-19T14:13:31.637Z,5.82
2023-05-19T14:18:32.559Z,6.13
2023-05-19T14:21:01.595Z,6.45
2023-05-19T14:23:30.680Z,7.70
2023-05-19T14:25:59.613Z,6.38
2023-05-19T14:28:28.934Z,6.53
2023-05-19T14:31:00.154Z,6.67
2023-05-19T14:33:32.759Z,6.43
2023-05-19T14:36:06.462Z,6.20
2023-05-19T14:38:35.545Z,6.82
2023-05-19T14:41:04.532Z,6.97
2023-05-19T14:43:33.290Z,6.93
2023-05-19T14:46:02.377Z,6.75
2023-05-19T14:48:31.360Z,6.35
2023-05-19T14:51:01.098Z,6.60
2023-05-19T14:53:31.638Z,8.60
2023-05-19T14:56:00.554Z,7.22
2023-05-19T14:58:29.509Z,6.53
2023-05-19T15:01:00.255Z,7.07
2023-05-19T15:03:29.307Z,7.30
2023-05-19T15:05:58.286Z,5.80
2023-05-19T15:08:27.431Z,6.85
2023-05-19T15:10:57.539Z,6.72
2023-05-19T15:13:26.594Z,7.05
2023-05-19T15:16:08.304Z,6.03
2023-05-19T15:18:44.408Z,6.95
2023-05-19T15:21:13.927Z,5.63
2023-05-19T15:23:42.922Z,6.22
2023-05-19T15:26:13.230Z,6.25
2023-05-19T15:28:41.995Z,6.40
2023-05-19T15:31:11.004Z,6.13
2023-05-19T15:33:40.119Z,6.10
2023-05-19T15:36:09.158Z,6.03
2023-05-19T15:38:38.205Z,7.05
2023-05-19T15:41:09.040Z,5.97
2023-05-19T15:43:39.171Z,6.90
2023-05-19T15:46:08.300Z,6.53
2023-05-19T15:48:37.441Z,6.82
2023-05-19T15:51:06.472Z,6.82
2023-05-19T15:53:35.524Z,6.00
2023-05-19T15:56:04.904Z,5.97
2023-05-19T15:58:33.682Z,7.03
2023-05-19T16:01:04.786Z,7.05
2023-05-19T16:03:34.195Z,6.53
2023-05-19T16:06:03.341Z,7.70
2023-05-19T16:08:32.740Z,6.95
2023-05-19T16:11:01.635Z,7.05
2023-05-19T16:13:30.857Z,6.93
2023-05-19T16:15:59.927Z,7.72
2023-05-19T16:18:30.539Z,7.22
2023-05-19T16:20:59.644Z,6.18
2023-05-19T16:23:28.769Z,6.47
2023-05-19T16:25:57.726Z,7.00
2023-05-19T16:28:28.072Z,7.10
2023-05-19T16:30:59.295Z,8.57
2023-05-19T16:33:30.257Z,6.72
2023-05-19T16:35:59.966Z,7.20
2023-05-19T16:38:29.122Z,6.88
2023-05-19T16:40:58.125Z,6.65
2023-05-19T16:43:26.958Z,6.30
2023-05-19T16:45:56.119Z,7.00
2023-05-19T16:48:25.339Z,7.07
2023-05-19T16:50:55.936Z,7.57
2023-05-19T16:53:25.164Z,6.80
2023-05-19T16:55:53.798Z,7.50
2023-05-19T16:58:22.710Z,6.70
2023-05-19T17:00:53.092Z,7.43
2023-05-19T17:05:51.189Z,6.57
2023-05-19T17:08:21.593Z,7.22
2023-05-19T17:13:19.390Z,6.60
2023-05-19T17:15:52.561Z,7.78
2023-05-19T17:18:21.584Z,7.57
2023-05-19T17:20:50.714Z,8.15
2023-05-19T17:23:19.708Z,6.97
2023-05-19T17:25:50.497Z,7.50
2023-05-19T17:28:19.570Z,8.82
2023-05-19T17:30:48.564Z,7.63
2023-05-19T17:33:17.661Z,8.57
2023-05-19T17:35:46.685Z,8.43
2023-05-19T17:38:15.760Z,8.80
2023-05-19T17:40:45.369Z,8.45
2023-05-19T17:43:15.820Z,9.00
2023-05-19T17:45:44.894Z,7.65
2023-05-19T17:48:13.990Z,8.35
2023-05-19T17:50:43.003Z,9.07
2023-05-19T17:53:12.116Z,9.18
2023-05-19T17:55:41.426Z,8.32
2023-05-19T17:58:10.953Z,9.10
2023-05-19T18:00:42.047Z,8.33
2023-05-19T18:03:11.579Z,8.77
2023-05-19T18:05:43.362Z,9.60
2023-05-19T18:08:13.667Z,8.50
2023-05-19T18:10:43.770Z,8.25
2023-05-19T18:13:14.142Z,8.68
2023-05-19T18:18:13.637Z,7.78
2023-05-19T18:20:44.921Z,7.90
2023-05-19T18:23:14.881Z,8.55
2023-05-19T18:25:50.690Z,8.13
2023-05-19T18:28:19.770Z,7.88
2023-05-19T18:31:00.220Z,7.80
2023-05-19T18:33:31.062Z,8.32
2023-05-19T18:36:00.605Z,8.23
2023-05-19T18:38:29.641Z,8.20
2023-05-19T18:41:01.405Z,8.93
2023-05-19T18:43:30.264Z,9.00
2023-05-19T18:46:00.817Z,9.30
2023-05-19T18:48:29.835Z,9.75
2023-05-19T18:50:58.827Z,8.90
2023-05-19T18:53:28.958Z,9.35
2023-05-19T18:55:57.720Z,8.45
2023-05-19T18:58:26.714Z,8.32
2023-05-19T19:00:56.382Z,8.50
2023-05-19T19:03:26.912Z,8.25
2023-05-19T19:05:56.432Z,9.55
2023-05-19T19:08:25.632Z,9.43
2023-05-19T19:10:59.302Z,8.75
2023-05-19T19:13:28.322Z,8.75
2023-05-19T19:15:57.341Z,7.47
2023-05-19T19:18:27.883Z,8.43
2023-05-19T19:20:57.894Z,8.90
2023-05-19T19:23:26.975Z,9.63
2023-05-19T19:25:56.566Z,8.85
2023-05-19T19:28:25.559Z,8.90
2023-05-19T19:30:54.669Z,10.90
2023-05-19T19:33:24.780Z,10.57
2023-05-19T19:35:55.744Z,8.65
2023-05-19T19:38:25.184Z,9.00
2023-05-19T19:40:53.767Z,9.25
2023-05-19T19:43:22.873Z,9.98
2023-05-19T19:46:00.745Z,9.77
2023-05-19T19:48:29.901Z,8.38
2023-05-19T19:51:00.301Z,9.75
2023-05-19T19:55:59.483Z,10.00
2023-05-19T19:58:28.877Z,8.98
2023-05-19T20:00:58.881Z,9.25
2023-05-19T20:03:29.564Z,9.57
2023-05-19T20:06:00.178Z,9.82
2023-05-19T20:08:29.136Z,10.07
2023-05-19T20:10:58.169Z,9.45
2023-05-19T20:13:27.118Z,9.32
2023-05-19T20:15:56.112Z,8.52
2023-05-19T20:18:27.298Z,10.25
2023-05-19T20:20:56.489Z,9.23
2023-05-19T20:23:26.890Z,10.15
2023-05-19T20:26:10.839Z,10.45
2023-05-19T20:28:41.369Z,9.45
2023-05-19T20:31:10.475Z,10.57
2023-05-19T20:33:39.600Z,11.10
2023-05-19T20:36:08.656Z,10.75
2023-05-19T20:38:38.979Z,9.55
2023-05-19T20:43:36.515Z,9.70
2023-05-19T20:46:05.623Z,9.55
2023-05-19T20:48:34.653Z,9.80
2023-05-19T20:51:05.177Z,10.10
2023-05-19T20:53:35.068Z,9.65
2023-05-19T20:56:06.944Z,9.65
2023-05-19T20:58:35.509Z,9.00
2023-05-19T21:01:04.568Z,9.27
2023-05-19T21:03:33.647Z,10.23
2023-05-19T21:06:02.578Z,10.35
2023-05-19T21:08:31.603Z,9.75
2023-05-19T21:11:00.725Z,10.23
2023-05-19T21:13:31.877Z,10.20
2023-05-19T21:16:02.184Z,11.07
2023-05-19T21:21:03.836Z,10.25
2023-05-19T21:23:32.884Z,9.98
2023-05-19T21:26:01.863Z,10.20
2023-05-19T21:28:32.224Z,11.25
2023-05-19T21:31:01.494Z,13.63
2023-05-19T21:33:31.281Z,15.77
2023-05-19T21:36:00.562Z,14.85
2023-05-19T21:38:29.734Z,15.52
2023-05-19T21:40:58.672Z,14.93
2023-05-19T21:43:27.332Z,15.90
2023-05-19T21:45:57.850Z,14.43
2023-05-19T21:48:26.858Z,14.77
2023-05-19T21:50:56.262Z,13.90
2023-05-19T21:53:25.267Z,13.52
2023-05-19T21:55:53.936Z,11.90
2023-05-19T21:58:22.968Z,11.82
2023-05-19T22:00:55.998Z,12.70
2023-05-19T22:03:26.564Z,13.52
2023-05-19T22:05:56.188Z,12.40
2023-05-19T22:08:26.165Z,13.13
2023-05-19T22:10:54.886Z,12.50
2023-05-19T22:13:23.954Z,14.38
2023-05-19T22:15:52.819Z,13.70
2023-05-19T22:18:22.079Z,13.20
2023-05-19T22:20:52.478Z,11.68
2023-05-19T22:25:49.684Z,11.70
2023-05-19T22:28:18.835Z,11.60
2023-05-19T22:30:47.803Z,11.52
2023-05-19T22:33:16.851Z,12.15
2023-05-19T22:35:46.107Z,12.82
2023-05-19T22:38:16.552Z,10.93
2023-05-19T22:40:45.573Z,13.95
2023-05-19T22:43:14.469Z,11.70
2023-05-19T22:45:43.449Z,12.18
2023-05-19T22:48:12.514Z,13.45
2023-05-19T22:50:41.625Z,11.73
2023-05-19T22:53:10.632Z,12.30
2023-05-19T22:55:40.823Z,11.55
2023-05-19T22:58:09.875Z,11.60
2023-05-19T23:00:38.877Z,11.25
2023-05-19T23:03:07.890Z,11.25
2023-05-19T23:05:38.132Z,11.20
2023-05-19T23:08:07.576Z,11.65
2023-05-19T23:10:36.074Z,11.45
2023-05-19T23:13:06.591Z,11.75
2023-05-19T23:15:35.910Z,12.65
2023-05-19T23:18:07.444Z,12.27
2023-05-19T23:20:37.614Z,11.88
2023-05-19T23:23:06.656Z,11.48
2023-05-19T23:25:35.512Z,12.93
2023-05-19T23:28:10.223Z,12.20
2023-05-19T23:30:39.370Z,11.18
2023-05-19T23:33:08.442Z,12.27
2023-05-19T23:35:37.527Z,11.55
2023-05-19T23:38:06.731Z,11.18
2023-05-19T23:40:35.352Z,12.95
2023-05-19T23:43:06.211Z,11.52
2023-05-19T23:45:35.268Z,13.75
2023-05-19T23:48:04.344Z,10.80
2023-05-19T23:50:33.391Z,12.07
2023-05-19T23:53:02.591Z,9.95
2023-05-19T23:55:31.327Z,10.88
2023-05-19T23:58:00.475Z,9.40
